OIIK  Qazvin Airport

Add Bookmark

Qazvin, Iran

Status
Operational
Latitude Longitude
36° 14' 24" N 50° 2' 49" E
36.240101 50.047100
Local (DST + 5) UTC (GMT + 4)
Sep 3, 2014 06:33 Sep 3, 2014 02:03
Sunrise-Sunset Local UTC
Begin Civil Twilight 06:15 01:45
Sunrise 06:41 02:11
Sunset 07:36 15:06
End Civil Twilight 08:02 15:32

Current Weather

METAR Observed VFR
OIIK 030100Z 05004KT CAVOK 24/02 Q1017 Wed, Sep 3, 2014 @ 01:00 UTC
(1 Hour, 3 Minutes ago)
Visual Flight Rules
Wind Visibility Clouds Conditions
050° at 4 knots (7 kph) 10 km or more
  • Clear skies
  • No significant weather
Temperatures Readings Precipitation
Current Temp 24°C (75°F)
Dewpoint 2°C (36°F)
Humidity 24%
Altimeter 30.03"Hg
Sea Level Pressure 1017mb
Field Elevation 4192.91'
None Recorded

Additional weather within a 92.6km radius of OIIK

Map ICAO Location
OIIP 87km S (126°)

24 Hour Weather History

Loading
-

24 Hour Weather Graphs

Loading
-

CheckWX.com is intended as a tool to help pilots better visualize weather data. It is not intended as a substitute for an official weather briefing obtained from a Flight Service Station. CheckWX.com does not meet the FAA requirements for an official pre-flight weather briefing. Therefore, it's important that pilots still call and obtain an official FSS pre-flight weather briefing.